sensor_id;sensor_type;location;lat;lon;timestamp;P1;durP1;ratioP1;P2;durP2;ratioP2
72920;SDS011;61064;51.654;5.476;2022-08-30T00:00:29;10.10;;;3.87;;
72920;SDS011;61064;51.654;5.476;2022-08-30T00:03:13;9.30;;;3.38;;
72920;SDS011;61064;51.654;5.476;2022-08-30T00:05:39;8.93;;;3.10;;
72920;SDS011;61064;51.654;5.476;2022-08-30T00:08:06;10.32;;;3.90;;
72920;SDS011;61064;51.654;5.476;2022-08-30T00:10:32;8.33;;;3.53;;
72920;SDS011;61064;51.654;5.476;2022-08-30T00:12:57;12.00;;;3.60;;
72920;SDS011;61064;51.654;5.476;2022-08-30T00:15:24;9.88;;;3.88;;
72920;SDS011;61064;51.654;5.476;2022-08-30T00:17:50;11.43;;;4.10;;
72920;SDS011;61064;51.654;5.476;2022-08-30T00:20:18;10.40;;;3.87;;
72920;SDS011;61064;51.654;5.476;2022-08-30T00:22:46;10.23;;;3.70;;
72920;SDS011;61064;51.654;5.476;2022-08-30T00:25:11;10.90;;;3.63;;
72920;SDS011;61064;51.654;5.476;2022-08-30T00:27:38;10.65;;;3.42;;
72920;SDS011;61064;51.654;5.476;2022-08-30T00:30:04;11.20;;;3.80;;
72920;SDS011;61064;51.654;5.476;2022-08-30T00:32:30;8.57;;;3.60;;
72920;SDS011;61064;51.654;5.476;2022-08-30T00:34:56;7.93;;;3.30;;
72920;SDS011;61064;51.654;5.476;2022-08-30T00:37:21;12.03;;;4.10;;
72920;SDS011;61064;51.654;5.476;2022-08-30T00:39:47;9.57;;;3.43;;
72920;SDS011;61064;51.654;5.476;2022-08-30T00:42:13;8.43;;;3.40;;
72920;SDS011;61064;51.654;5.476;2022-08-30T00:44:40;9.23;;;3.60;;
72920;SDS011;61064;51.654;5.476;2022-08-30T00:47:06;9.18;;;3.53;;
72920;SDS011;61064;51.654;5.476;2022-08-30T00:49:32;10.57;;;3.70;;
72920;SDS011;61064;51.654;5.476;2022-08-30T00:51:59;10.18;;;3.50;;
72920;SDS011;61064;51.654;5.476;2022-08-30T00:54:25;8.98;;;3.63;;
72920;SDS011;61064;51.654;5.476;2022-08-30T00:56:52;11.48;;;3.58;;
72920;SDS011;61064;51.654;5.476;2022-08-30T00:59:19;9.83;;;3.80;;
72920;SDS011;61064;51.654;5.476;2022-08-30T01:01:46;10.50;;;3.40;;
72920;SDS011;61064;51.654;5.476;2022-08-30T01:04:11;9.20;;;3.38;;
72920;SDS011;61064;51.654;5.476;2022-08-30T01:06:39;10.27;;;3.67;;
72920;SDS011;61064;51.654;5.476;2022-08-30T01:09:06;8.25;;;3.83;;
72920;SDS011;61064;51.654;5.476;2022-08-30T01:11:33;9.63;;;3.90;;
72920;SDS011;61064;51.654;5.476;2022-08-30T01:14:01;9.65;;;3.80;;
72920;SDS011;61064;51.654;5.476;2022-08-30T01:16:29;8.80;;;3.67;;
72920;SDS011;61064;51.654;5.476;2022-08-30T01:18:57;7.90;;;3.40;;
72920;SDS011;61064;51.654;5.476;2022-08-30T01:24:04;7.57;;;3.40;;
72920;SDS011;61064;51.654;5.476;2022-08-30T01:26:32;8.00;;;3.40;;
72920;SDS011;61064;51.654;5.476;2022-08-30T01:29:02;11.68;;;4.25;;
72920;SDS011;61064;51.654;5.476;2022-08-30T01:31:30;10.33;;;3.50;;
72920;SDS011;61064;51.654;5.476;2022-08-30T01:33:57;11.52;;;3.78;;
72920;SDS011;61064;51.654;5.476;2022-08-30T01:36:24;9.93;;;3.65;;
72920;SDS011;61064;51.654;5.476;2022-08-30T01:38:52;9.53;;;3.97;;
72920;SDS011;61064;51.654;5.476;2022-08-30T01:41:20;8.15;;;3.67;;
72920;SDS011;61064;51.654;5.476;2022-08-30T01:43:46;10.85;;;3.67;;
72920;SDS011;61064;51.654;5.476;2022-08-30T01:46:14;9.82;;;4.07;;
72920;SDS011;61064;51.654;5.476;2022-08-30T01:48:41;11.10;;;4.20;;
72920;SDS011;61064;51.654;5.476;2022-08-30T01:51:11;9.10;;;3.50;;
72920;SDS011;61064;51.654;5.476;2022-08-30T01:53:38;8.82;;;3.67;;
72920;SDS011;61064;51.654;5.476;2022-08-30T01:56:05;10.70;;;4.18;;
72920;SDS011;61064;51.654;5.476;2022-08-30T01:58:32;9.25;;;3.97;;
72920;SDS011;61064;51.654;5.476;2022-08-30T02:00:58;9.68;;;3.80;;
72920;SDS011;61064;51.654;5.476;2022-08-30T02:03:23;8.50;;;3.57;;
72920;SDS011;61064;51.654;5.476;2022-08-30T02:05:50;8.68;;;4.10;;
72920;SDS011;61064;51.654;5.476;2022-08-30T02:08:16;9.63;;;3.77;;
72920;SDS011;61064;51.654;5.476;2022-08-30T02:10:41;12.00;;;4.73;;
72920;SDS011;61064;51.654;5.476;2022-08-30T02:13:07;9.33;;;4.20;;
72920;SDS011;61064;51.654;5.476;2022-08-30T02:15:32;10.15;;;4.05;;
72920;SDS011;61064;51.654;5.476;2022-08-30T02:17:59;8.03;;;4.07;;
72920;SDS011;61064;51.654;5.476;2022-08-30T02:20:24;11.82;;;4.40;;
72920;SDS011;61064;51.654;5.476;2022-08-30T02:22:50;11.50;;;4.40;;
72920;SDS011;61064;51.654;5.476;2022-08-30T02:25:15;8.17;;;4.20;;
72920;SDS011;61064;51.654;5.476;2022-08-30T02:27:40;8.50;;;3.90;;
72920;SDS011;61064;51.654;5.476;2022-08-30T02:30:07;11.27;;;4.40;;
72920;SDS011;61064;51.654;5.476;2022-08-30T02:32:33;9.10;;;4.82;;
72920;SDS011;61064;51.654;5.476;2022-08-30T02:34:58;8.93;;;4.47;;
72920;SDS011;61064;51.654;5.476;2022-08-30T02:37:24;10.10;;;4.50;;
72920;SDS011;61064;51.654;5.476;2022-08-30T02:39:49;8.87;;;4.37;;
72920;SDS011;61064;51.654;5.476;2022-08-30T02:42:15;10.40;;;4.70;;
72920;SDS011;61064;51.654;5.476;2022-08-30T02:44:40;10.53;;;4.77;;
72920;SDS011;61064;51.654;5.476;2022-08-30T02:47:06;12.77;;;4.90;;
72920;SDS011;61064;51.654;5.476;2022-08-30T02:49:31;9.52;;;4.93;;
72920;SDS011;61064;51.654;5.476;2022-08-30T02:51:56;10.37;;;4.80;;
72920;SDS011;61064;51.654;5.476;2022-08-30T02:54:21;10.03;;;4.70;;
72920;SDS011;61064;51.654;5.476;2022-08-30T02:56:47;9.33;;;4.67;;
72920;SDS011;61064;51.654;5.476;2022-08-30T02:59:14;10.55;;;4.75;;
72920;SDS011;61064;51.654;5.476;2022-08-30T03:01:41;9.35;;;4.72;;
72920;SDS011;61064;51.654;5.476;2022-08-30T03:04:07;11.90;;;4.90;;
72920;SDS011;61064;51.654;5.476;2022-08-30T03:06:33;9.30;;;4.50;;
72920;SDS011;61064;51.654;5.476;2022-08-30T03:08:58;14.37;;;4.83;;
72920;SDS011;61064;51.654;5.476;2022-08-30T03:11:23;9.05;;;4.93;;
72920;SDS011;61064;51.654;5.476;2022-08-30T03:13:49;10.90;;;5.20;;
72920;SDS011;61064;51.654;5.476;2022-08-30T03:16:14;10.90;;;5.87;;
72920;SDS011;61064;51.654;5.476;2022-08-30T03:18:40;9.97;;;5.50;;
72920;SDS011;61064;51.654;5.476;2022-08-30T03:21:14;9.80;;;5.20;;
72920;SDS011;61064;51.654;5.476;2022-08-30T03:23:40;10.55;;;5.38;;
72920;SDS011;61064;51.654;5.476;2022-08-30T03:26:06;10.77;;;5.85;;
72920;SDS011;61064;51.654;5.476;2022-08-30T03:28:33;11.23;;;5.72;;
72920;SDS011;61064;51.654;5.476;2022-08-30T03:30:58;11.77;;;5.60;;
72920;SDS011;61064;51.654;5.476;2022-08-30T03:33:24;11.90;;;5.80;;
72920;SDS011;61064;51.654;5.476;2022-08-30T03:35:49;12.30;;;5.85;;
72920;SDS011;61064;51.654;5.476;2022-08-30T03:38:14;11.97;;;5.83;;
72920;SDS011;61064;51.654;5.476;2022-08-30T03:40:40;11.60;;;5.90;;
72920;SDS011;61064;51.654;5.476;2022-08-30T03:43:05;10.97;;;5.67;;
72920;SDS011;61064;51.654;5.476;2022-08-30T03:45:31;11.48;;;5.50;;
72920;SDS011;61064;51.654;5.476;2022-08-30T03:47:56;11.23;;;5.90;;
72920;SDS011;61064;51.654;5.476;2022-08-30T03:50:22;10.40;;;5.63;;
72920;SDS011;61064;51.654;5.476;2022-08-30T03:52:48;11.87;;;5.50;;
72920;SDS011;61064;51.654;5.476;2022-08-30T03:55:13;9.80;;;5.43;;
72920;SDS011;61064;51.654;5.476;2022-08-30T03:57:39;11.43;;;5.43;;
72920;SDS011;61064;51.654;5.476;2022-08-30T04:00:06;9.98;;;6.00;;
72920;SDS011;61064;51.654;5.476;2022-08-30T04:02:32;10.55;;;5.95;;
72920;SDS011;61064;51.654;5.476;2022-08-30T04:04:58;10.53;;;5.70;;
72920;SDS011;61064;51.654;5.476;2022-08-30T04:07:23;10.97;;;6.43;;
72920;SDS011;61064;51.654;5.476;2022-08-30T04:09:48;13.23;;;6.30;;
72920;SDS011;61064;51.654;5.476;2022-08-30T04:12:14;10.90;;;6.30;;
72920;SDS011;61064;51.654;5.476;2022-08-30T04:14:39;12.77;;;6.63;;
72920;SDS011;61064;51.654;5.476;2022-08-30T04:17:04;13.13;;;6.63;;
72920;SDS011;61064;51.654;5.476;2022-08-30T04:19:30;12.60;;;6.90;;
72920;SDS011;61064;51.654;5.476;2022-08-30T04:21:55;12.20;;;6.57;;
72920;SDS011;61064;51.654;5.476;2022-08-30T04:24:21;13.75;;;6.55;;
72920;SDS011;61064;51.654;5.476;2022-08-30T04:26:46;10.63;;;6.37;;
72920;SDS011;61064;51.654;5.476;2022-08-30T04:29:12;11.30;;;6.67;;
72920;SDS011;61064;51.654;5.476;2022-08-30T04:31:40;12.55;;;7.05;;
72920;SDS011;61064;51.654;5.476;2022-08-30T04:34:05;12.30;;;6.97;;
72920;SDS011;61064;51.654;5.476;2022-08-30T04:36:32;15.82;;;7.05;;
72920;SDS011;61064;51.654;5.476;2022-08-30T04:38:58;13.80;;;7.00;;
72920;SDS011;61064;51.654;5.476;2022-08-30T04:41:23;14.20;;;6.60;;
72920;SDS011;61064;51.654;5.476;2022-08-30T04:43:49;14.30;;;7.57;;
72920;SDS011;61064;51.654;5.476;2022-08-30T04:46:14;13.90;;;7.28;;
72920;SDS011;61064;51.654;5.476;2022-08-30T04:48:41;17.38;;;7.70;;
72920;SDS011;61064;51.654;5.476;2022-08-30T04:51:08;12.17;;;7.37;;
72920;SDS011;61064;51.654;5.476;2022-08-30T04:53:36;15.67;;;7.23;;
72920;SDS011;61064;51.654;5.476;2022-08-30T04:56:06;13.38;;;7.65;;
72920;SDS011;61064;51.654;5.476;2022-08-30T04:58:32;11.87;;;7.27;;
72920;SDS011;61064;51.654;5.476;2022-08-30T05:00:58;12.73;;;7.60;;
72920;SDS011;61064;51.654;5.476;2022-08-30T05:03:23;13.53;;;7.50;;
72920;SDS011;61064;51.654;5.476;2022-08-30T05:05:49;12.10;;;7.37;;
72920;SDS011;61064;51.654;5.476;2022-08-30T05:08:16;12.25;;;7.35;;
72920;SDS011;61064;51.654;5.476;2022-08-30T05:10:44;16.00;;;7.23;;
72920;SDS011;61064;51.654;5.476;2022-08-30T05:13:12;15.93;;;7.78;;
72920;SDS011;61064;51.654;5.476;2022-08-30T05:15:38;12.82;;;7.68;;
72920;SDS011;61064;51.654;5.476;2022-08-30T05:18:04;14.88;;;7.25;;
72920;SDS011;61064;51.654;5.476;2022-08-30T05:20:31;14.07;;;7.63;;
72920;SDS011;61064;51.654;5.476;2022-08-30T05:22:57;14.50;;;8.03;;
72920;SDS011;61064;51.654;5.476;2022-08-30T05:25:23;12.80;;;7.73;;
72920;SDS011;61064;51.654;5.476;2022-08-30T05:27:51;17.15;;;8.27;;
72920;SDS011;61064;51.654;5.476;2022-08-30T05:30:17;12.77;;;7.32;;
72920;SDS011;61064;51.654;5.476;2022-08-30T05:32:43;14.43;;;7.60;;
72920;SDS011;61064;51.654;5.476;2022-08-30T05:35:09;13.25;;;7.13;;
72920;SDS011;61064;51.654;5.476;2022-08-30T05:37:36;15.95;;;8.07;;
72920;SDS011;61064;51.654;5.476;2022-08-30T05:40:03;14.20;;;8.10;;
72920;SDS011;61064;51.654;5.476;2022-08-30T05:42:29;12.43;;;7.35;;
72920;SDS011;61064;51.654;5.476;2022-08-30T05:44:55;12.83;;;7.80;;
72920;SDS011;61064;51.654;5.476;2022-08-30T05:47:20;13.40;;;7.67;;
72920;SDS011;61064;51.654;5.476;2022-08-30T05:49:46;14.07;;;6.93;;
72920;SDS011;61064;51.654;5.476;2022-08-30T05:52:12;13.05;;;7.30;;
72920;SDS011;61064;51.654;5.476;2022-08-30T05:54:41;11.60;;;7.50;;
72920;SDS011;61064;51.654;5.476;2022-08-30T05:57:07;14.02;;;7.20;;
72920;SDS011;61064;51.654;5.476;2022-08-30T05:59:33;11.93;;;7.43;;
72920;SDS011;61064;51.654;5.476;2022-08-30T06:01:58;12.23;;;7.13;;
72920;SDS011;61064;51.654;5.476;2022-08-30T06:04:24;12.50;;;7.20;;
72920;SDS011;61064;51.654;5.476;2022-08-30T06:06:49;10.90;;;6.97;;
72920;SDS011;61064;51.654;5.476;2022-08-30T06:09:15;13.00;;;6.70;;
72920;SDS011;61064;51.654;5.476;2022-08-30T06:11:41;12.43;;;7.03;;
72920;SDS011;61064;51.654;5.476;2022-08-30T06:14:06;13.23;;;6.88;;
72920;SDS011;61064;51.654;5.476;2022-08-30T06:16:32;12.07;;;6.37;;
72920;SDS011;61064;51.654;5.476;2022-08-30T06:18:59;12.65;;;6.40;;
72920;SDS011;61064;51.654;5.476;2022-08-30T06:21:26;12.77;;;6.10;;
72920;SDS011;61064;51.654;5.476;2022-08-30T06:23:54;13.95;;;6.32;;
72920;SDS011;61064;51.654;5.476;2022-08-30T06:26:20;12.17;;;6.57;;
72920;SDS011;61064;51.654;5.476;2022-08-30T06:28:46;11.52;;;6.32;;
72920;SDS011;61064;51.654;5.476;2022-08-30T06:31:13;10.65;;;6.35;;
72920;SDS011;61064;51.654;5.476;2022-08-30T06:33:40;13.57;;;6.25;;
72920;SDS011;61064;51.654;5.476;2022-08-30T06:36:06;11.23;;;6.43;;
72920;SDS011;61064;51.654;5.476;2022-08-30T06:38:34;10.68;;;5.70;;
72920;SDS011;61064;51.654;5.476;2022-08-30T06:40:59;11.47;;;6.60;;
72920;SDS011;61064;51.654;5.476;2022-08-30T06:43:28;12.30;;;5.72;;
72920;SDS011;61064;51.654;5.476;2022-08-30T06:45:54;11.88;;;5.80;;
72920;SDS011;61064;51.654;5.476;2022-08-30T06:48:20;10.27;;;5.27;;
72920;SDS011;61064;51.654;5.476;2022-08-30T06:50:51;10.70;;;5.57;;
72920;SDS011;61064;51.654;5.476;2022-08-30T06:53:17;12.82;;;5.57;;
72920;SDS011;61064;51.654;5.476;2022-08-30T06:55:42;9.87;;;5.00;;
72920;SDS011;61064;51.654;5.476;2022-08-30T06:58:08;8.27;;;5.23;;
72920;SDS011;61064;51.654;5.476;2022-08-30T07:00:33;9.60;;;5.17;;
72920;SDS011;61064;51.654;5.476;2022-08-30T07:02:59;9.47;;;4.53;;
72920;SDS011;61064;51.654;5.476;2022-08-30T07:05:26;9.32;;;4.97;;
72920;SDS011;61064;51.654;5.476;2022-08-30T07:07:52;8.65;;;4.93;;
72920;SDS011;61064;51.654;5.476;2022-08-30T07:10:18;10.18;;;4.90;;
72920;SDS011;61064;51.654;5.476;2022-08-30T07:12:45;9.40;;;4.85;;
72920;SDS011;61064;51.654;5.476;2022-08-30T07:15:11;9.87;;;4.40;;
72920;SDS011;61064;51.654;5.476;2022-08-30T07:17:37;10.63;;;4.50;;
72920;SDS011;61064;51.654;5.476;2022-08-30T07:20:21;8.00;;;3.95;;
72920;SDS011;61064;51.654;5.476;2022-08-30T07:22:47;7.97;;;4.17;;
72920;SDS011;61064;51.654;5.476;2022-08-30T07:25:13;7.80;;;4.07;;
72920;SDS011;61064;51.654;5.476;2022-08-30T07:27:40;8.37;;;4.23;;
72920;SDS011;61064;51.654;5.476;2022-08-30T07:30:07;9.15;;;4.10;;
72920;SDS011;61064;51.654;5.476;2022-08-30T07:32:51;8.52;;;3.60;;
72920;SDS011;61064;51.654;5.476;2022-08-30T07:35:22;9.10;;;3.70;;
72920;SDS011;61064;51.654;5.476;2022-08-30T07:38:48;8.40;;;3.60;;
72920;SDS011;61064;51.654;5.476;2022-08-30T07:41:24;8.65;;;3.70;;
72920;SDS011;61064;51.654;5.476;2022-08-30T07:43:58;8.45;;;3.63;;
72920;SDS011;61064;51.654;5.476;2022-08-30T07:46:23;6.97;;;3.23;;
72920;SDS011;61064;51.654;5.476;2022-08-30T07:48:50;7.63;;;2.88;;
72920;SDS011;61064;51.654;5.476;2022-08-30T07:51:19;6.97;;;2.95;;
72920;SDS011;61064;51.654;5.476;2022-08-30T07:53:47;7.07;;;2.97;;
72920;SDS011;61064;51.654;5.476;2022-08-30T07:56:15;8.68;;;2.88;;
72920;SDS011;61064;51.654;5.476;2022-08-30T07:58:40;7.00;;;2.80;;
72920;SDS011;61064;51.654;5.476;2022-08-30T08:01:07;7.50;;;2.70;;
72920;SDS011;61064;51.654;5.476;2022-08-30T08:03:35;6.95;;;2.70;;
72920;SDS011;61064;51.654;5.476;2022-08-30T08:06:04;8.17;;;2.50;;
72920;SDS011;61064;51.654;5.476;2022-08-30T08:08:30;6.50;;;2.20;;
72920;SDS011;61064;51.654;5.476;2022-08-30T08:10:56;6.15;;;2.25;;
72920;SDS011;61064;51.654;5.476;2022-08-30T08:13:22;6.67;;;2.17;;
72920;SDS011;61064;51.654;5.476;2022-08-30T08:15:48;6.45;;;2.00;;
72920;SDS011;61064;51.654;5.476;2022-08-30T08:18:14;7.55;;;2.30;;
72920;SDS011;61064;51.654;5.476;2022-08-30T08:20:39;6.10;;;2.33;;
72920;SDS011;61064;51.654;5.476;2022-08-30T08:23:05;6.53;;;2.30;;
72920;SDS011;61064;51.654;5.476;2022-08-30T08:25:30;6.03;;;2.23;;
72920;SDS011;61064;51.654;5.476;2022-08-30T08:27:56;7.37;;;2.30;;
72920;SDS011;61064;51.654;5.476;2022-08-30T08:30:22;5.88;;;2.10;;
72920;SDS011;61064;51.654;5.476;2022-08-30T08:32:48;6.73;;;2.00;;
72920;SDS011;61064;51.654;5.476;2022-08-30T08:35:14;6.30;;;2.00;;
72920;SDS011;61064;51.654;5.476;2022-08-30T08:37:41;7.97;;;2.75;;
72920;SDS011;61064;51.654;5.476;2022-08-30T08:40:06;5.67;;;1.70;;
72920;SDS011;61064;51.654;5.476;2022-08-30T08:45:07;7.97;;;1.77;;
72920;SDS011;61064;51.654;5.476;2022-08-30T08:47:57;9.15;;;1.90;;
72920;SDS011;61064;51.654;5.476;2022-08-30T08:50:27;7.87;;;2.10;;
72920;SDS011;61064;51.654;5.476;2022-08-30T08:55:50;6.80;;;2.10;;
72920;SDS011;61064;51.654;5.476;2022-08-30T09:00:47;6.87;;;2.10;;
72920;SDS011;61064;51.654;5.476;2022-08-30T09:03:13;9.05;;;2.10;;
72920;SDS011;61064;51.654;5.476;2022-08-30T09:05:40;7.45;;;1.65;;
72920;SDS011;61064;51.654;5.476;2022-08-30T09:08:09;7.83;;;1.80;;
72920;SDS011;61064;51.654;5.476;2022-08-30T09:10:38;6.82;;;1.90;;
72920;SDS011;61064;51.654;5.476;2022-08-30T09:13:05;8.35;;;1.73;;
72920;SDS011;61064;51.654;5.476;2022-08-30T09:15:31;6.23;;;1.80;;
72920;SDS011;61064;51.654;5.476;2022-08-30T09:17:59;8.20;;;1.80;;
72920;SDS011;61064;51.654;5.476;2022-08-30T09:26:00;5.78;;;1.35;;
72920;SDS011;61064;51.654;5.476;2022-08-30T09:28:31;6.80;;;1.50;;
72920;SDS011;61064;51.654;5.476;2022-08-30T09:33:24;7.27;;;1.70;;
72920;SDS011;61064;51.654;5.476;2022-08-30T09:35:50;11.03;;;1.63;;
72920;SDS011;61064;51.654;5.476;2022-08-30T09:38:23;6.13;;;1.30;;
72920;SDS011;61064;51.654;5.476;2022-08-30T09:40:54;7.53;;;1.40;;
72920;SDS011;61064;51.654;5.476;2022-08-30T09:43:23;5.88;;;1.35;;
72920;SDS011;61064;51.654;5.476;2022-08-30T09:48:31;5.73;;;1.20;;
72920;SDS011;61064;51.654;5.476;2022-08-30T09:51:06;5.88;;;1.25;;
72920;SDS011;61064;51.654;5.476;2022-08-30T09:59:01;6.78;;;1.30;;
72920;SDS011;61064;51.654;5.476;2022-08-30T10:01:31;6.07;;;1.30;;
72920;SDS011;61064;51.654;5.476;2022-08-30T10:06:42;6.53;;;1.42;;
72920;SDS011;61064;51.654;5.476;2022-08-30T10:15:02;6.30;;;1.20;;
72920;SDS011;61064;51.654;5.476;2022-08-30T10:25:35;4.72;;;1.00;;
72920;SDS011;61064;51.654;5.476;2022-08-30T10:28:10;5.70;;;1.20;;
72920;SDS011;61064;51.654;5.476;2022-08-30T10:30:41;5.18;;;1.20;;
72920;SDS011;61064;51.654;5.476;2022-08-30T10:33:14;4.78;;;1.30;;
72920;SDS011;61064;51.654;5.476;2022-08-30T10:35:46;6.70;;;1.35;;
72920;SDS011;61064;51.654;5.476;2022-08-30T10:40:46;6.60;;;1.20;;
72920;SDS011;61064;51.654;5.476;2022-08-30T10:49:01;9.88;;;1.30;;
72920;SDS011;61064;51.654;5.476;2022-08-30T10:51:35;7.15;;;1.30;;
72920;SDS011;61064;51.654;5.476;2022-08-30T10:54:12;6.37;;;1.20;;
72920;SDS011;61064;51.654;5.476;2022-08-30T10:56:44;5.30;;;1.20;;
72920;SDS011;61064;51.654;5.476;2022-08-30T10:59:15;7.43;;;1.30;;
72920;SDS011;61064;51.654;5.476;2022-08-30T11:07:38;5.90;;;1.10;;
72920;SDS011;61064;51.654;5.476;2022-08-30T11:10:09;8.20;;;1.52;;
72920;SDS011;61064;51.654;5.476;2022-08-30T11:15:51;8.63;;;1.20;;
72920;SDS011;61064;51.654;5.476;2022-08-30T11:18:20;8.45;;;1.35;;
72920;SDS011;61064;51.654;5.476;2022-08-30T11:20:47;6.23;;;1.50;;
72920;SDS011;61064;51.654;5.476;2022-08-30T11:23:33;4.72;;;1.10;;
72920;SDS011;61064;51.654;5.476;2022-08-30T11:29:00;4.77;;;1.40;;
72920;SDS011;61064;51.654;5.476;2022-08-30T11:31:30;5.65;;;1.30;;
72920;SDS011;61064;51.654;5.476;2022-08-30T11:33:59;7.53;;;1.20;;
72920;SDS011;61064;51.654;5.476;2022-08-30T11:41:29;4.97;;;1.20;;
72920;SDS011;61064;51.654;5.476;2022-08-30T11:46:50;3.77;;;1.10;;
72920;SDS011;61064;51.654;5.476;2022-08-30T11:58:53;6.38;;;1.48;;
72920;SDS011;61064;51.654;5.476;2022-08-30T12:03:54;7.38;;;1.17;;
72920;SDS011;61064;51.654;5.476;2022-08-30T12:09:04;6.82;;;1.20;;
72920;SDS011;61064;51.654;5.476;2022-08-30T12:13:57;7.77;;;1.20;;
72920;SDS011;61064;51.654;5.476;2022-08-30T12:19:13;7.90;;;1.27;;
72920;SDS011;61064;51.654;5.476;2022-08-30T12:21:42;6.80;;;1.23;;
72920;SDS011;61064;51.654;5.476;2022-08-30T12:24:18;8.67;;;1.33;;
72920;SDS011;61064;51.654;5.476;2022-08-30T12:26:56;6.03;;;1.30;;
72920;SDS011;61064;51.654;5.476;2022-08-30T12:29:27;6.25;;;1.60;;
72920;SDS011;61064;51.654;5.476;2022-08-30T12:32:02;6.17;;;1.40;;
72920;SDS011;61064;51.654;5.476;2022-08-30T12:40:03;7.57;;;1.50;;
72920;SDS011;61064;51.654;5.476;2022-08-30T12:42:35;7.05;;;1.25;;
72920;SDS011;61064;51.654;5.476;2022-08-30T12:45:15;6.43;;;1.40;;
72920;SDS011;61064;51.654;5.476;2022-08-30T12:47:46;8.05;;;1.23;;
72920;SDS011;61064;51.654;5.476;2022-08-30T12:50:20;5.80;;;1.40;;
72920;SDS011;61064;51.654;5.476;2022-08-30T12:53:00;5.05;;;1.27;;
72920;SDS011;61064;51.654;5.476;2022-08-30T12:55:30;4.47;;;1.30;;
72920;SDS011;61064;51.654;5.476;2022-08-30T12:58:05;6.57;;;1.30;;
72920;SDS011;61064;51.654;5.476;2022-08-30T13:00:36;9.05;;;1.40;;
72920;SDS011;61064;51.654;5.476;2022-08-30T13:06:05;6.85;;;1.20;;
72920;SDS011;61064;51.654;5.476;2022-08-30T13:11:08;6.47;;;1.33;;
72920;SDS011;61064;51.654;5.476;2022-08-30T13:13:50;6.25;;;1.42;;
72920;SDS011;61064;51.654;5.476;2022-08-30T13:18:47;4.78;;;1.10;;
72920;SDS011;61064;51.654;5.476;2022-08-30T13:21:22;9.05;;;1.30;;
72920;SDS011;61064;51.654;5.476;2022-08-30T13:23:58;4.70;;;1.10;;
72920;SDS011;61064;51.654;5.476;2022-08-30T13:26:33;6.35;;;1.20;;
72920;SDS011;61064;51.654;5.476;2022-08-30T13:29:04;8.88;;;1.40;;
72920;SDS011;61064;51.654;5.476;2022-08-30T13:31:30;6.00;;;1.27;;
72920;SDS011;61064;51.654;5.476;2022-08-30T13:33:57;8.68;;;1.60;;
72920;SDS011;61064;51.654;5.476;2022-08-30T13:36:35;7.93;;;1.30;;
72920;SDS011;61064;51.654;5.476;2022-08-30T13:39:04;7.68;;;1.52;;
72920;SDS011;61064;51.654;5.476;2022-08-30T13:41:30;7.28;;;1.20;;
72920;SDS011;61064;51.654;5.476;2022-08-30T13:43:57;7.43;;;1.48;;
72920;SDS011;61064;51.654;5.476;2022-08-30T13:46:22;7.40;;;1.57;;
72920;SDS011;61064;51.654;5.476;2022-08-30T13:48:56;4.28;;;1.08;;
72920;SDS011;61064;51.654;5.476;2022-08-30T13:51:26;5.72;;;1.35;;
72920;SDS011;61064;51.654;5.476;2022-08-30T13:53:51;6.93;;;1.27;;
72920;SDS011;61064;51.654;5.476;2022-08-30T13:56:16;7.27;;;1.13;;
72920;SDS011;61064;51.654;5.476;2022-08-30T13:58:42;5.82;;;1.40;;
72920;SDS011;61064;51.654;5.476;2022-08-30T14:01:07;5.37;;;1.30;;
72920;SDS011;61064;51.654;5.476;2022-08-30T14:03:32;5.97;;;1.17;;
72920;SDS011;61064;51.654;5.476;2022-08-30T14:05:58;6.90;;;1.33;;
72920;SDS011;61064;51.654;5.476;2022-08-30T14:08:25;10.30;;;1.40;;
72920;SDS011;61064;51.654;5.476;2022-08-30T14:10:53;7.15;;;1.25;;
72920;SDS011;61064;51.654;5.476;2022-08-30T14:13:18;6.20;;;1.35;;
72920;SDS011;61064;51.654;5.476;2022-08-30T14:15:43;6.10;;;1.30;;
72920;SDS011;61064;51.654;5.476;2022-08-30T14:18:10;6.03;;;1.20;;
72920;SDS011;61064;51.654;5.476;2022-08-30T14:20:36;5.57;;;1.10;;
72920;SDS011;61064;51.654;5.476;2022-08-30T14:23:01;5.93;;;1.30;;
72920;SDS011;61064;51.654;5.476;2022-08-30T14:25:27;6.25;;;1.20;;
72920;SDS011;61064;51.654;5.476;2022-08-30T14:27:53;7.30;;;1.33;;
72920;SDS011;61064;51.654;5.476;2022-08-30T14:30:19;5.47;;;1.30;;
72920;SDS011;61064;51.654;5.476;2022-08-30T14:32:45;7.38;;;1.55;;
72920;SDS011;61064;51.654;5.476;2022-08-30T14:35:11;7.97;;;1.37;;
72920;SDS011;61064;51.654;5.476;2022-08-30T14:37:37;7.18;;;1.48;;
72920;SDS011;61064;51.654;5.476;2022-08-30T14:40:02;8.57;;;1.40;;
72920;SDS011;61064;51.654;5.476;2022-08-30T14:42:28;8.48;;;1.50;;
72920;SDS011;61064;51.654;5.476;2022-08-30T14:44:54;7.13;;;1.30;;
72920;SDS011;61064;51.654;5.476;2022-08-30T14:47:19;10.73;;;1.30;;
72920;SDS011;61064;51.654;5.476;2022-08-30T14:49:45;7.20;;;1.43;;
72920;SDS011;61064;51.654;5.476;2022-08-30T14:52:10;6.75;;;1.30;;
72920;SDS011;61064;51.654;5.476;2022-08-30T14:54:35;8.00;;;1.20;;
72920;SDS011;61064;51.654;5.476;2022-08-30T14:57:01;5.63;;;1.20;;
72920;SDS011;61064;51.654;5.476;2022-08-30T14:59:26;5.97;;;1.30;;
72920;SDS011;61064;51.654;5.476;2022-08-30T15:01:52;7.45;;;1.48;;
72920;SDS011;61064;51.654;5.476;2022-08-30T15:04:19;6.50;;;1.25;;
72920;SDS011;61064;51.654;5.476;2022-08-30T15:06:45;6.93;;;1.33;;
72920;SDS011;61064;51.654;5.476;2022-08-30T15:09:13;7.50;;;1.35;;
72920;SDS011;61064;51.654;5.476;2022-08-30T15:11:42;8.23;;;1.40;;
72920;SDS011;61064;51.654;5.476;2022-08-30T15:14:08;10.63;;;1.50;;
72920;SDS011;61064;51.654;5.476;2022-08-30T15:16:34;7.95;;;1.30;;
72920;SDS011;61064;51.654;5.476;2022-08-30T15:19:02;6.55;;;1.45;;
72920;SDS011;61064;51.654;5.476;2022-08-30T15:21:30;6.20;;;1.23;;
72920;SDS011;61064;51.654;5.476;2022-08-30T15:24:16;7.43;;;1.30;;
72920;SDS011;61064;51.654;5.476;2022-08-30T15:26:43;8.85;;;1.30;;
72920;SDS011;61064;51.654;5.476;2022-08-30T15:29:10;7.63;;;1.60;;
72920;SDS011;61064;51.654;5.476;2022-08-30T15:31:37;7.30;;;1.45;;
72920;SDS011;61064;51.654;5.476;2022-08-30T15:34:04;11.23;;;1.98;;
72920;SDS011;61064;51.654;5.476;2022-08-30T15:36:30;6.27;;;1.50;;
72920;SDS011;61064;51.654;5.476;2022-08-30T15:38:56;8.98;;;1.85;;
72920;SDS011;61064;51.654;5.476;2022-08-30T15:41:23;6.70;;;1.23;;
72920;SDS011;61064;51.654;5.476;2022-08-30T15:43:48;6.00;;;1.38;;
72920;SDS011;61064;51.654;5.476;2022-08-30T15:46:19;8.37;;;1.27;;
72920;SDS011;61064;51.654;5.476;2022-08-30T15:48:46;7.63;;;1.70;;
72920;SDS011;61064;51.654;5.476;2022-08-30T15:51:13;7.60;;;1.80;;
72920;SDS011;61064;51.654;5.476;2022-08-30T15:53:39;9.45;;;1.70;;
72920;SDS011;61064;51.654;5.476;2022-08-30T15:56:04;5.47;;;1.30;;
72920;SDS011;61064;51.654;5.476;2022-08-30T15:58:30;7.63;;;1.50;;
72920;SDS011;61064;51.654;5.476;2022-08-30T16:00:55;8.03;;;1.40;;
72920;SDS011;61064;51.654;5.476;2022-08-30T16:03:21;6.53;;;1.23;;
72920;SDS011;61064;51.654;5.476;2022-08-30T16:05:46;5.90;;;1.10;;
72920;SDS011;61064;51.654;5.476;2022-08-30T16:08:11;5.30;;;1.00;;
72920;SDS011;61064;51.654;5.476;2022-08-30T16:10:40;6.23;;;1.20;;
72920;SDS011;61064;51.654;5.476;2022-08-30T16:13:05;6.47;;;1.38;;
72920;SDS011;61064;51.654;5.476;2022-08-30T16:15:30;5.80;;;1.20;;
72920;SDS011;61064;51.654;5.476;2022-08-30T16:17:56;6.93;;;1.07;;
72920;SDS011;61064;51.654;5.476;2022-08-30T16:20:21;6.83;;;1.30;;
72920;SDS011;61064;51.654;5.476;2022-08-30T16:22:47;6.00;;;1.20;;
72920;SDS011;61064;51.654;5.476;2022-08-30T16:25:12;4.83;;;1.10;;
72920;SDS011;61064;51.654;5.476;2022-08-30T16:27:38;5.63;;;1.30;;
72920;SDS011;61064;51.654;5.476;2022-08-30T16:30:07;7.95;;;1.30;;